sensor_id;sensor_type;location;lat;lon;timestamp;pressure;altitude;pressure_sealevel;temperature;humidity
72721;BME280;60835;50.974;10.322;2022-10-14T00:01:41;97277.13;;;11.79;100.00
72721;BME280;60835;50.974;10.322;2022-10-14T00:04:08;97272.66;;;11.80;100.00
72721;BME280;60835;50.974;10.322;2022-10-14T00:06:34;97272.66;;;11.80;100.00
72721;BME280;60835;50.974;10.322;2022-10-14T00:09:05;97283.16;;;11.73;100.00
72721;BME280;60835;50.974;10.322;2022-10-14T00:11:33;97274.69;;;11.78;100.00
72721;BME280;60835;50.974;10.322;2022-10-14T00:14:02;97271.00;;;11.79;100.00
72721;BME280;60835;50.974;10.322;2022-10-14T00:16:32;97271.44;;;11.82;100.00
72721;BME280;60835;50.974;10.322;2022-10-14T00:18:59;97261.22;;;11.79;100.00
72721;BME280;60835;50.974;10.322;2022-10-14T00:21:26;97262.91;;;11.87;100.00
72721;BME280;60835;50.974;10.322;2022-10-14T00:23:53;97245.09;;;11.74;100.00
72721;BME280;60835;50.974;10.322;2022-10-14T00:26:25;97262.09;;;11.86;100.00
72721;BME280;60835;50.974;10.322;2022-10-14T00:28:52;97272.06;;;11.84;100.00
72721;BME280;60835;50.974;10.322;2022-10-14T00:31:19;97269.25;;;11.86;100.00
72721;BME280;60835;50.974;10.322;2022-10-14T00:33:46;97254.78;;;11.88;100.00
72721;BME280;60835;50.974;10.322;2022-10-14T00:36:14;97264.56;;;11.88;100.00
72721;BME280;60835;50.974;10.322;2022-10-14T00:38:41;97271.19;;;11.98;100.00
72721;BME280;60835;50.974;10.322;2022-10-14T00:41:11;97254.13;;;12.07;100.00
72721;BME280;60835;50.974;10.322;2022-10-14T00:46:52;97254.91;;;12.01;100.00
72721;BME280;60835;50.974;10.322;2022-10-14T00:49:25;97256.75;;;12.07;100.00
72721;BME280;60835;50.974;10.322;2022-10-14T00:51:55;97260.69;;;12.11;100.00
72721;BME280;60835;50.974;10.322;2022-10-14T00:54:29;97255.84;;;12.15;100.00
72721;BME280;60835;50.974;10.322;2022-10-14T00:56:56;97245.25;;;12.21;100.00
72721;BME280;60835;50.974;10.322;2022-10-14T00:59:23;97234.75;;;12.07;100.00
72721;BME280;60835;50.974;10.322;2022-10-14T01:01:50;97252.13;;;12.09;100.00
72721;BME280;60835;50.974;10.322;2022-10-14T01:04:16;97254.81;;;12.16;100.00
72721;BME280;60835;50.974;10.322;2022-10-14T01:06:58;97259.00;;;12.32;100.00
72721;BME280;60835;50.974;10.322;2022-10-14T01:09:46;97247.69;;;12.44;100.00
72721;BME280;60835;50.974;10.322;2022-10-14T01:12:27;97250.81;;;12.61;100.00
72721;BME280;60835;50.974;10.322;2022-10-14T01:20:40;97243.22;;;12.92;100.00
72721;BME280;60835;50.974;10.322;2022-10-14T01:29:12;97225.72;;;13.04;100.00
72721;BME280;60835;50.974;10.322;2022-10-14T01:31:46;97222.84;;;12.99;100.00
72721;BME280;60835;50.974;10.322;2022-10-14T01:34:20;97204.88;;;13.01;100.00
72721;BME280;60835;50.974;10.322;2022-10-14T01:36:57;97199.63;;;13.08;100.00
72721;BME280;60835;50.974;10.322;2022-10-14T01:39:28;97208.94;;;12.97;100.00
72721;BME280;60835;50.974;10.322;2022-10-14T01:42:04;97198.34;;;13.04;100.00
72721;BME280;60835;50.974;10.322;2022-10-14T01:44:34;97196.16;;;13.07;100.00
72721;BME280;60835;50.974;10.322;2022-10-14T01:47:05;97190.16;;;13.05;100.00
72721;BME280;60835;50.974;10.322;2022-10-14T01:49:35;97197.75;;;13.08;100.00
72721;BME280;60835;50.974;10.322;2022-10-14T01:52:26;97186.56;;;13.13;100.00
72721;BME280;60835;50.974;10.322;2022-10-14T01:54:56;97180.84;;;13.09;100.00
72721;BME280;60835;50.974;10.322;2022-10-14T01:57:27;97184.50;;;13.08;100.00
72721;BME280;60835;50.974;10.322;2022-10-14T01:59:55;97192.59;;;13.00;100.00
72721;BME280;60835;50.974;10.322;2022-10-14T02:02:23;97202.22;;;13.01;100.00
72721;BME280;60835;50.974;10.322;2022-10-14T02:04:50;97192.59;;;13.00;100.00
72721;BME280;60835;50.974;10.322;2022-10-14T02:07:55;97200.56;;;13.00;100.00
72721;BME280;60835;50.974;10.322;2022-10-14T02:10:54;97199.16;;;13.04;100.00
72721;BME280;60835;50.974;10.322;2022-10-14T02:16:12;97198.94;;;13.06;100.00
72721;BME280;60835;50.974;10.322;2022-10-14T02:21:40;97196.28;;;12.99;100.00
72721;BME280;60835;50.974;10.322;2022-10-14T02:24:17;97205.88;;;13.00;100.00
72721;BME280;60835;50.974;10.322;2022-10-14T02:26:46;97209.56;;;12.99;100.00
72721;BME280;60835;50.974;10.322;2022-10-14T02:29:16;97216.91;;;12.97;100.00
72721;BME280;60835;50.974;10.322;2022-10-14T02:31:44;97209.34;;;12.94;100.00
72721;BME280;60835;50.974;10.322;2022-10-14T02:34:14;97213.03;;;13.00;100.00
72721;BME280;60835;50.974;10.322;2022-10-14T02:36:43;97190.97;;;12.99;100.00
72721;BME280;60835;50.974;10.322;2022-10-14T02:39:13;97203.22;;;13.00;100.00
72721;BME280;60835;50.974;10.322;2022-10-14T02:41:41;97197.69;;;12.95;100.00
72721;BME280;60835;50.974;10.322;2022-10-14T02:44:08;97201.81;;;13.04;100.00
72721;BME280;60835;50.974;10.322;2022-10-14T02:46:34;97196.50;;;13.04;100.00
72721;BME280;60835;50.974;10.322;2022-10-14T02:49:01;97182.41;;;12.97;100.00
72721;BME280;60835;50.974;10.322;2022-10-14T02:51:27;97197.50;;;13.03;100.00
72721;BME280;60835;50.974;10.322;2022-10-14T02:53:54;97186.47;;;12.93;100.00
72721;BME280;60835;50.974;10.322;2022-10-14T02:56:22;97172.16;;;12.88;100.00
72721;BME280;60835;50.974;10.322;2022-10-14T02:58:49;97182.81;;;12.94;100.00
72721;BME280;60835;50.974;10.322;2022-10-14T03:01:15;97192.81;;;12.99;100.00
72721;BME280;60835;50.974;10.322;2022-10-14T03:03:42;97198.94;;;12.99;100.00
72721;BME280;60835;50.974;10.322;2022-10-14T03:06:08;97199.53;;;12.95;100.00
72721;BME280;60835;50.974;10.322;2022-10-14T03:08:35;97197.31;;;12.98;100.00
72721;BME280;60835;50.974;10.322;2022-10-14T03:11:01;97177.06;;;12.91;100.00
72721;BME280;60835;50.974;10.322;2022-10-14T03:13:29;97188.13;;;12.94;100.00
72721;BME280;60835;50.974;10.322;2022-10-14T03:15:55;97189.34;;;12.98;100.00
72721;BME280;60835;50.974;10.322;2022-10-14T03:18:22;97175.28;;;13.04;100.00
72721;BME280;60835;50.974;10.322;2022-10-14T03:20:48;97175.88;;;13.06;100.00
72721;BME280;60835;50.974;10.322;2022-10-14T03:23:15;97148.28;;;12.94;100.00
72721;BME280;60835;50.974;10.322;2022-10-14T03:25:44;97168.72;;;13.00;100.00
72721;BME280;60835;50.974;10.322;2022-10-14T03:28:11;97163.81;;;12.97;100.00
72721;BME280;60835;50.974;10.322;2022-10-14T03:30:38;97161.56;;;12.94;100.00
72721;BME280;60835;50.974;10.322;2022-10-14T03:33:05;97166.47;;;12.97;100.00
72721;BME280;60835;50.974;10.322;2022-10-14T03:35:31;97157.88;;;12.89;100.00
72721;BME280;60835;50.974;10.322;2022-10-14T03:37:58;97184.81;;;12.92;100.00
72721;BME280;60835;50.974;10.322;2022-10-14T03:40:28;97188.06;;;12.81;100.00
72721;BME280;60835;50.974;10.322;2022-10-14T03:42:58;97200.25;;;12.69;100.00
72721;BME280;60835;50.974;10.322;2022-10-14T03:45:26;97208.44;;;12.74;100.00
72721;BME280;60835;50.974;10.322;2022-10-14T03:47:54;97190.81;;;12.60;100.00
72721;BME280;60835;50.974;10.322;2022-10-14T03:50:21;97217.44;;;12.73;100.00
72721;BME280;60835;50.974;10.322;2022-10-14T03:52:47;97214.47;;;12.55;100.00
72721;BME280;60835;50.974;10.322;2022-10-14T03:55:20;97216.16;;;12.69;100.00
72721;BME280;60835;50.974;10.322;2022-10-14T03:57:47;97217.38;;;12.66;100.00
72721;BME280;60835;50.974;10.322;2022-10-14T04:00:13;97209.06;;;12.76;100.00
72721;BME280;60835;50.974;10.322;2022-10-14T04:02:40;97199.84;;;12.72;100.00
72721;BME280;60835;50.974;10.322;2022-10-14T04:05:07;97215.78;;;12.72;100.00
72721;BME280;60835;50.974;10.322;2022-10-14T04:07:34;97210.72;;;12.83;100.00
72721;BME280;60835;50.974;10.322;2022-10-14T04:10:00;97218.59;;;12.64;100.00
72721;BME280;60835;50.974;10.322;2022-10-14T04:12:27;97216.56;;;12.66;100.00
72721;BME280;60835;50.974;10.322;2022-10-14T04:14:53;97210.00;;;12.62;100.00
72721;BME280;60835;50.974;10.322;2022-10-14T04:17:23;97223.94;;;12.70;100.00
72721;BME280;60835;50.974;10.322;2022-10-14T04:19:50;97232.06;;;12.62;100.00
72721;BME280;60835;50.974;10.322;2022-10-14T04:22:17;97228.19;;;12.65;100.00
72721;BME280;60835;50.974;10.322;2022-10-14T04:24:45;97231.41;;;12.54;100.00
72721;BME280;60835;50.974;10.322;2022-10-14T04:27:11;97237.72;;;12.53;100.00
72721;BME280;60835;50.974;10.322;2022-10-14T04:29:38;97235.88;;;12.53;100.00
72721;BME280;60835;50.974;10.322;2022-10-14T04:32:04;97233.28;;;12.60;100.00
72721;BME280;60835;50.974;10.322;2022-10-14T04:34:31;97222.81;;;12.52;100.00
72721;BME280;60835;50.974;10.322;2022-10-14T04:36:57;97225.94;;;12.62;100.00
72721;BME280;60835;50.974;10.322;2022-10-14T04:39:23;97216.47;;;12.53;100.00
72721;BME280;60835;50.974;10.322;2022-10-14T04:41:50;97203.03;;;12.54;100.00
72721;BME280;60835;50.974;10.322;2022-10-14T04:44:16;97210.25;;;12.67;100.00
72721;BME280;60835;50.974;10.322;2022-10-14T04:46:43;97207.97;;;12.64;100.00
72721;BME280;60835;50.974;10.322;2022-10-14T04:49:09;97199.78;;;12.59;100.00
72721;BME280;60835;50.974;10.322;2022-10-14T04:51:37;97221.00;;;12.59;100.00
72721;BME280;60835;50.974;10.322;2022-10-14T04:54:05;97221.84;;;12.66;100.00
72721;BME280;60835;50.974;10.322;2022-10-14T04:56:31;97211.22;;;12.59;100.00
72721;BME280;60835;50.974;10.322;2022-10-14T04:58:57;97218.41;;;12.65;100.00
72721;BME280;60835;50.974;10.322;2022-10-14T05:01:24;97223.50;;;12.67;100.00
72721;BME280;60835;50.974;10.322;2022-10-14T05:03:55;97214.13;;;12.71;100.00
72721;BME280;60835;50.974;10.322;2022-10-14T05:06:22;97210.47;;;12.72;100.00
72721;BME280;60835;50.974;10.322;2022-10-14T05:08:48;97217.00;;;12.69;100.00
72721;BME280;60835;50.974;10.322;2022-10-14T05:11:15;97209.25;;;12.68;100.00
72721;BME280;60835;50.974;10.322;2022-10-14T05:13:41;97223.50;;;12.67;100.00
72721;BME280;60835;50.974;10.322;2022-10-14T05:16:07;97194.72;;;12.64;100.00
72721;BME280;60835;50.974;10.322;2022-10-14T05:18:34;97207.19;;;12.70;100.00
72721;BME280;60835;50.974;10.322;2022-10-14T05:21:00;97204.72;;;12.68;100.00
72721;BME280;60835;50.974;10.322;2022-10-14T05:23:27;97181.38;;;12.51;100.00
72721;BME280;60835;50.974;10.322;2022-10-14T05:25:53;97195.31;;;12.59;100.00
72721;BME280;60835;50.974;10.322;2022-10-14T05:28:20;97207.38;;;12.62;100.00
72721;BME280;60835;50.974;10.322;2022-10-14T05:30:46;97207.97;;;12.57;100.00
72721;BME280;60835;50.974;10.322;2022-10-14T05:33:13;97189.13;;;12.46;100.00
72721;BME280;60835;50.974;10.322;2022-10-14T05:35:40;97205.09;;;12.59;100.00
72721;BME280;60835;50.974;10.322;2022-10-14T05:38:24;97205.72;;;12.61;100.00
72721;BME280;60835;50.974;10.322;2022-10-14T05:40:52;97203.28;;;12.59;100.00
72721;BME280;60835;50.974;10.322;2022-10-14T05:43:20;97206.75;;;12.60;100.00
72721;BME280;60835;50.974;10.322;2022-10-14T05:45:46;97202.84;;;12.56;100.00
72721;BME280;60835;50.974;10.322;2022-10-14T05:48:13;97198.56;;;12.61;100.00
72721;BME280;60835;50.974;10.322;2022-10-14T05:50:40;97204.72;;;12.62;100.00
72721;BME280;60835;50.974;10.322;2022-10-14T05:53:07;97205.53;;;12.69;100.00
72721;BME280;60835;50.974;10.322;2022-10-14T05:55:34;97194.09;;;12.62;100.00
72721;BME280;60835;50.974;10.322;2022-10-14T05:58:00;97200.63;;;12.66;100.00
72721;BME280;60835;50.974;10.322;2022-10-14T06:00:27;97199.00;;;12.65;100.00
72721;BME280;60835;50.974;10.322;2022-10-14T06:02:56;97202.66;;;12.64;100.00
72721;BME280;60835;50.974;10.322;2022-10-14T06:05:23;97205.16;;;12.65;100.00
72721;BME280;60835;50.974;10.322;2022-10-14T06:07:50;97192.44;;;12.61;100.00
72721;BME280;60835;50.974;10.322;2022-10-14T06:10:16;97197.81;;;12.74;100.00
72721;BME280;60835;50.974;10.322;2022-10-14T06:12:43;97195.81;;;12.76;100.00
72721;BME280;60835;50.974;10.322;2022-10-14T06:15:09;97195.38;;;12.79;100.00
72721;BME280;60835;50.974;10.322;2022-10-14T06:17:36;97198.25;;;12.77;100.00
72721;BME280;60835;50.974;10.322;2022-10-14T06:20:02;97171.66;;;12.71;100.00
72721;BME280;60835;50.974;10.322;2022-10-14T06:22:29;97192.38;;;12.89;100.00
72721;BME280;60835;50.974;10.322;2022-10-14T06:24:55;97171.91;;;12.76;100.00
72721;BME280;60835;50.974;10.322;2022-10-14T06:27:29;97190.53;;;12.89;100.00
72721;BME280;60835;50.974;10.322;2022-10-14T06:29:55;97182.75;;;12.81;100.00
72721;BME280;60835;50.974;10.322;2022-10-14T06:32:22;97189.50;;;12.90;100.00
72721;BME280;60835;50.974;10.322;2022-10-14T06:34:49;97160.28;;;12.77;100.00
72721;BME280;60835;50.974;10.322;2022-10-14T06:37:15;97173.22;;;13.00;100.00
72721;BME280;60835;50.974;10.322;2022-10-14T06:39:41;97168.50;;;12.95;100.00
72721;BME280;60835;50.974;10.322;2022-10-14T06:42:10;97169.34;;;13.02;100.00
72721;BME280;60835;50.974;10.322;2022-10-14T06:44:38;97162.78;;;12.98;100.00
72721;BME280;60835;50.974;10.322;2022-10-14T06:47:05;97169.13;;;13.04;100.00
72721;BME280;60835;50.974;10.322;2022-10-14T06:49:33;97160.00;;;13.13;100.00
72721;BME280;60835;50.974;10.322;2022-10-14T06:51:59;97144.91;;;13.20;100.00
72721;BME280;60835;50.974;10.322;2022-10-14T06:54:25;97143.28;;;13.25;100.00
72721;BME280;60835;50.974;10.322;2022-10-14T06:56:52;97119.16;;;13.14;100.00
72721;BME280;60835;50.974;10.322;2022-10-14T06:59:18;97103.66;;;13.30;100.00
72721;BME280;60835;50.974;10.322;2022-10-14T07:01:45;97075.66;;;13.48;100.00
72721;BME280;60835;50.974;10.322;2022-10-14T07:04:11;97031.31;;;13.55;100.00
72721;BME280;60835;50.974;10.322;2022-10-14T07:06:38;97114.91;;;13.65;100.00
72721;BME280;60835;50.974;10.322;2022-10-14T07:09:04;97223.25;;;13.76;100.00
72721;BME280;60835;50.974;10.322;2022-10-14T07:11:31;97261.72;;;13.87;100.00
72721;BME280;60835;50.974;10.322;2022-10-14T07:13:57;97291.91;;;13.60;100.00
72721;BME280;60835;50.974;10.322;2022-10-14T07:16:24;97282.25;;;13.46;100.00
72721;BME280;60835;50.974;10.322;2022-10-14T07:18:51;97329.31;;;13.65;100.00
72721;BME280;60835;50.974;10.322;2022-10-14T07:21:18;97352.25;;;13.66;100.00
72721;BME280;60835;50.974;10.322;2022-10-14T07:23:44;97346.50;;;13.62;100.00
72721;BME280;60835;50.974;10.322;2022-10-14T07:26:11;97339.13;;;13.58;100.00
72721;BME280;60835;50.974;10.322;2022-10-14T07:28:38;97316.00;;;13.58;100.00
72721;BME280;60835;50.974;10.322;2022-10-14T07:31:09;97323.59;;;13.55;100.00
72721;BME280;60835;50.974;10.322;2022-10-14T07:33:37;97329.94;;;13.67;100.00
72721;BME280;60835;50.974;10.322;2022-10-14T07:36:08;97348.56;;;13.80;100.00
72721;BME280;60835;50.974;10.322;2022-10-14T07:38:35;97335.44;;;13.59;100.00
72721;BME280;60835;50.974;10.322;2022-10-14T07:41:08;97344.44;;;13.64;100.00
72721;BME280;60835;50.974;10.322;2022-10-14T07:43:43;97319.53;;;13.72;100.00
72721;BME280;60835;50.974;10.322;2022-10-14T07:46:10;97299.50;;;13.63;100.00
72721;BME280;60835;50.974;10.322;2022-10-14T07:48:38;97296.63;;;13.58;100.00
72721;BME280;60835;50.974;10.322;2022-10-14T07:51:21;97251.66;;;13.76;100.00
72721;BME280;60835;50.974;10.322;2022-10-14T07:53:48;97237.13;;;13.59;100.00
72721;BME280;60835;50.974;10.322;2022-10-14T07:56:15;97138.00;;;13.65;100.00
72721;BME280;60835;50.974;10.322;2022-10-14T07:58:41;97064.00;;;13.68;100.00
72721;BME280;60835;50.974;10.322;2022-10-14T08:01:10;97048.47;;;13.65;100.00
72721;BME280;60835;50.974;10.322;2022-10-14T08:03:36;97024.28;;;13.80;100.00
72721;BME280;60835;50.974;10.322;2022-10-14T08:06:04;97046.22;;;13.56;100.00
72721;BME280;60835;50.974;10.322;2022-10-14T08:08:30;97034.13;;;13.66;100.00
72721;BME280;60835;50.974;10.322;2022-10-14T08:11:18;97032.72;;;13.51;100.00
72721;BME280;60835;50.974;10.322;2022-10-14T08:13:45;97113.06;;;13.39;100.00
72721;BME280;60835;50.974;10.322;2022-10-14T08:16:14;97154.75;;;13.59;100.00
72721;BME280;60835;50.974;10.322;2022-10-14T08:18:41;97155.97;;;13.63;100.00
72721;BME280;60835;50.974;10.322;2022-10-14T08:21:08;97163.94;;;13.69;100.00
72721;BME280;60835;50.974;10.322;2022-10-14T08:23:34;97149.81;;;14.01;100.00
72721;BME280;60835;50.974;10.322;2022-10-14T08:26:01;97129.72;;;14.25;100.00
72721;BME280;60835;50.974;10.322;2022-10-14T08:28:27;97097.97;;;14.43;100.00
72721;BME280;60835;50.974;10.322;2022-10-14T08:30:54;97029.19;;;14.85;100.00
72721;BME280;60835;50.974;10.322;2022-10-14T08:33:20;97035.19;;;14.29;100.00
72721;BME280;60835;50.974;10.322;2022-10-14T08:35:47;97030.66;;;14.30;100.00
72721;BME280;60835;50.974;10.322;2022-10-14T08:38:19;97026.13;;;14.43;100.00
72721;BME280;60835;50.974;10.322;2022-10-14T08:44:16;97181.19;;;14.70;100.00
72721;BME280;60835;50.974;10.322;2022-10-14T08:46:43;97244.69;;;14.53;100.00
72721;BME280;60835;50.974;10.322;2022-10-14T08:49:28;97217.63;;;14.70;100.00
72721;BME280;60835;50.974;10.322;2022-10-14T08:52:02;97224.59;;;14.71;100.00
72721;BME280;60835;50.974;10.322;2022-10-14T08:54:44;97254.75;;;14.51;100.00
72721;BME280;60835;50.974;10.322;2022-10-14T08:57:19;97284.81;;;14.72;100.00
72721;BME280;60835;50.974;10.322;2022-10-14T08:59:46;97309.59;;;14.52;100.00
72721;BME280;60835;50.974;10.322;2022-10-14T09:05:02;97331.47;;;14.81;100.00
72721;BME280;60835;50.974;10.322;2022-10-14T09:07:30;97373.91;;;14.56;100.00
72721;BME280;60835;50.974;10.322;2022-10-14T09:10:05;97375.53;;;14.57;100.00
72721;BME280;60835;50.974;10.322;2022-10-14T09:12:33;97364.69;;;14.45;100.00
72721;BME280;60835;50.974;10.322;2022-10-14T09:15:06;97345.59;;;14.29;100.00
72721;BME280;60835;50.974;10.322;2022-10-14T09:17:42;97321.25;;;14.64;100.00
72721;BME280;60835;50.974;10.322;2022-10-14T09:20:23;97358.13;;;14.68;100.00
72721;BME280;60835;50.974;10.322;2022-10-14T09:23:16;97352.00;;;14.47;100.00
72721;BME280;60835;50.974;10.322;2022-10-14T09:28:15;97347.84;;;14.78;100.00
72721;BME280;60835;50.974;10.322;2022-10-14T09:30:44;97380.59;;;15.11;100.00
72721;BME280;60835;50.974;10.322;2022-10-14T09:33:15;97469.66;;;15.67;100.00
72721;BME280;60835;50.974;10.322;2022-10-14T09:35:44;97556.78;;;15.87;100.00
72721;BME280;60835;50.974;10.322;2022-10-14T09:38:11;97655.69;;;15.52;100.00
72721;BME280;60835;50.974;10.322;2022-10-14T09:40:44;97662.66;;;15.66;100.00
72721;BME280;60835;50.974;10.322;2022-10-14T09:43:14;97680.69;;;16.17;100.00
72721;BME280;60835;50.974;10.322;2022-10-14T09:45:54;97784.75;;;15.97;100.00
72721;BME280;60835;50.974;10.322;2022-10-14T09:48:38;97787.44;;;16.56;100.00
72721;BME280;60835;50.974;10.322;2022-10-14T09:51:20;97838.34;;;16.48;100.00
72721;BME280;60835;50.974;10.322;2022-10-14T09:53:50;97901.59;;;16.48;100.00
72721;BME280;60835;50.974;10.322;2022-10-14T09:56:28;97956.66;;;17.47;100.00
72721;BME280;60835;50.974;10.322;2022-10-14T09:58:56;97950.47;;;16.35;100.00
72721;BME280;60835;50.974;10.322;2022-10-14T10:01:25;97957.66;;;16.28;100.00
72721;BME280;60835;50.974;10.322;2022-10-14T10:03:54;97962.88;;;16.62;100.00
72721;BME280;60835;50.974;10.322;2022-10-14T10:06:23;97959.91;;;16.37;100.00
72721;BME280;60835;50.974;10.322;2022-10-14T10:14:21;97854.16;;;16.17;100.00
72721;BME280;60835;50.974;10.322;2022-10-14T10:16:50;97912.25;;;16.15;100.00
72721;BME280;60835;50.974;10.322;2022-10-14T10:21:46;97964.50;;;17.55;100.00
72721;BME280;60835;50.974;10.322;2022-10-14T10:24:20;98078.88;;;17.53;100.00
72721;BME280;60835;50.974;10.322;2022-10-14T10:26:53;98072.03;;;16.78;100.00
72721;BME280;60835;50.974;10.322;2022-10-14T10:29:25;98046.13;;;17.05;100.00
72721;BME280;60835;50.974;10.322;2022-10-14T10:32:02;98050.38;;;18.04;100.00
72721;BME280;60835;50.974;10.322;2022-10-14T10:34:51;98157.16;;;18.52;100.00
72721;BME280;60835;50.974;10.322;2022-10-14T10:37:25;98205.84;;;18.93;100.00
72721;BME280;60835;50.974;10.322;2022-10-14T10:40:16;98243.00;;;18.90;100.00
72721;BME280;60835;50.974;10.322;2022-10-14T10:42:58;98250.94;;;18.45;100.00
72721;BME280;60835;50.974;10.322;2022-10-14T10:48:51;98157.44;;;18.17;100.00
72721;BME280;60835;50.974;10.322;2022-10-14T10:51:27;98223.75;;;18.29;100.00
72721;BME280;60835;50.974;10.322;2022-10-14T10:56:50;98156.44;;;17.66;100.00
72721;BME280;60835;50.974;10.322;2022-10-14T11:04:36;98114.66;;;17.39;100.00
72721;BME280;60835;50.974;10.322;2022-10-14T11:11:00;98071.84;;;17.91;100.00
72721;BME280;60835;50.974;10.322;2022-10-14T11:13:54;98094.91;;;17.53;100.00
72721;BME280;60835;50.974;10.322;2022-10-14T11:19:09;98095.72;;;17.08;100.00
72721;BME280;60835;50.974;10.322;2022-10-14T11:21:58;98021.28;;;17.04;100.00
72721;BME280;60835;50.974;10.322;2022-10-14T11:27:23;97975.13;;;16.43;100.00
72721;BME280;60835;50.974;10.322;2022-10-14T11:36:58;97988.56;;;16.89;100.00
72721;BME280;60835;50.974;10.322;2022-10-14T11:41:54;97939.19;;;16.39;100.00
72721;BME280;60835;50.974;10.322;2022-10-14T11:44:36;97925.03;;;16.45;100.00
72721;BME280;60835;50.974;10.322;2022-10-14T11:47:13;97920.91;;;16.36;100.00
72721;BME280;60835;50.974;10.322;2022-10-14T11:49:55;97927.97;;;16.96;100.00
72721;BME280;60835;50.974;10.322;2022-10-14T11:52:29;97936.56;;;16.79;100.00
72721;BME280;60835;50.974;10.322;2022-10-14T11:55:05;97941.91;;;16.53;100.00
72721;BME280;60835;50.974;10.322;2022-10-14T11:57:41;97936.38;;;16.54;100.00
72721;BME280;60835;50.974;10.322;2022-10-14T12:06:10;97938.16;;;16.40;100.00
72721;BME280;60835;50.974;10.322;2022-10-14T12:11:26;97880.66;;;16.44;100.00
72721;BME280;60835;50.974;10.322;2022-10-14T12:14:02;97906.31;;;16.32;100.00
72721;BME280;60835;50.974;10.322;2022-10-14T12:16:31;97874.13;;;16.60;100.00
72721;BME280;60835;50.974;10.322;2022-10-14T12:18:58;97913.34;;;17.05;100.00
72721;BME280;60835;50.974;10.322;2022-10-14T12:21:42;97939.84;;;17.14;100.00
72721;BME280;60835;50.974;10.322;2022-10-14T12:24:18;97969.13;;;17.92;100.00
72721;BME280;60835;50.974;10.322;2022-10-14T12:26:53;97976.81;;;17.56;100.00
72721;BME280;60835;50.974;10.322;2022-10-14T12:29:23;97993.19;;;17.92;100.00
72721;BME280;60835;50.974;10.322;2022-10-14T12:34:40;97999.28;;;17.29;100.00
72721;BME280;60835;50.974;10.322;2022-10-14T12:42:31;97957.56;;;16.88;100.00
72721;BME280;60835;50.974;10.322;2022-10-14T12:45:02;97932.03;;;16.53;100.00
72721;BME280;60835;50.974;10.322;2022-10-14T12:47:39;97926.09;;;16.64;100.00
72721;BME280;60835;50.974;10.322;2022-10-14T12:52:45;97896.50;;;16.46;100.00
72721;BME280;60835;50.974;10.322;2022-10-14T12:55:16;97891.53;;;16.36;100.00
72721;BME280;60835;50.974;10.322;2022-10-14T12:58:00;97902.69;;;16.66;100.00
72721;BME280;60835;50.974;10.322;2022-10-14T13:00:31;97882.34;;;16.72;100.00
72721;BME280;60835;50.974;10.322;2022-10-14T13:03:01;97890.97;;;16.80;100.00
72721;BME280;60835;50.974;10.322;2022-10-14T13:16:05;97879.47;;;16.86;100.00
72721;BME280;60835;50.974;10.322;2022-10-14T13:21:06;97887.69;;;16.78;100.00
72721;BME280;60835;50.974;10.322;2022-10-14T13:23:40;97905.75;;;16.76;100.00
72721;BME280;60835;50.974;10.322;2022-10-14T13:31:23;97885.19;;;16.44;100.00
72721;BME280;60835;50.974;10.322;2022-10-14T13:33:56;97877.59;;;16.93;100.00
72721;BME280;60835;50.974;10.322;2022-10-14T13:36:36;97905.22;;;17.45;100.00
72721;BME280;60835;50.974;10.322;2022-10-14T13:39:02;97921.09;;;17.33;100.00
72721;BME280;60835;50.974;10.322;2022-10-14T13:41:30;97899.56;;;16.95;100.00
72721;BME280;60835;50.974;10.322;2022-10-14T13:44:00;97912.72;;;17.17;100.00
72721;BME280;60835;50.974;10.322;2022-10-14T13:46:34;97912.94;;;17.15;100.00
72721;BME280;60835;50.974;10.322;2022-10-14T13:49:04;97885.56;;;17.20;100.00
72721;BME280;60835;50.974;10.322;2022-10-14T13:56:36;97900.97;;;17.24;100.00
72721;BME280;60835;50.974;10.322;2022-10-14T13:59:17;97901.16;;;17.36;100.00
72721;BME280;60835;50.974;10.322;2022-10-14T14:02:11;97902.53;;;17.58;100.00
72721;BME280;60835;50.974;10.322;2022-10-14T14:04:40;97909.97;;;17.56;100.00
72721;BME280;60835;50.974;10.322;2022-10-14T14:07:15;97899.66;;;17.59;100.00
72721;BME280;60835;50.974;10.322;2022-10-14T14:10:06;97906.50;;;17.36;100.00
72721;BME280;60835;50.974;10.322;2022-10-14T14:12:34;97868.75;;;16.93;100.00
72721;BME280;60835;50.974;10.322;2022-10-14T14:15:01;97843.28;;;16.84;100.00
72721;BME280;60835;50.974;10.322;2022-10-14T14:17:28;97848.59;;;17.03;100.00
72721;BME280;60835;50.974;10.322;2022-10-14T14:19:58;97813.28;;;16.88;100.00
72721;BME280;60835;50.974;10.322;2022-10-14T14:22:27;97816.19;;;16.67;100.00
72721;BME280;60835;50.974;10.322;2022-10-14T14:28:05;97788.03;;;16.78;100.00
72721;BME280;60835;50.974;10.322;2022-10-14T14:30:36;97781.69;;;16.59;100.00
72721;BME280;60835;50.974;10.322;2022-10-14T14:33:10;97756.59;;;16.47;100.00
72721;BME280;60835;50.974;10.322;2022-10-14T14:35:40;97770.56;;;16.69;100.00
72721;BME280;60835;50.974;10.322;2022-10-14T14:38:33;97768.13;;;16.67;100.00
72721;BME280;60835;50.974;10.322;2022-10-14T14:41:11;97761.53;;;16.50;100.00
72721;BME280;60835;50.974;10.322;2022-10-14T14:43:39;97759.50;;;16.65;100.00
72721;BME280;60835;50.974;10.322;2022-10-14T14:46:38;97760.75;;;16.56;100.00
72721;BME280;60835;50.974;10.322;2022-10-14T14:49:06;97742.22;;;16.41;100.00
72721;BME280;60835;50.974;10.322;2022-10-14T14:51:36;97704.09;;;16.28;100.00